Time;durP1;ratioP1;P1;durP2;ratioP2;P2;SDS_P1;SDS_P2;PMS_P1;PMS_P2;Temp;Humidity;BMP_temperature;BMP_pressure;BME280_temperature;BME280_humidity;BME280_pressure;Samples;Min_cycle;Max_cycle;Signal;HPM_P1;HPM_P2
2023/05/14 00:00:00;;;;;;;38.65;27.40;;;;;;;;;;5027813;28;20050;-75
2023/05/14 00:02:26;;;;;;;40.30;26.00;;;;;;;;;;5012536;28;20038;-75
2023/05/14 00:04:53;;;;;;;43.58;28.35;;;;;;;;;;4999074;28;20397;-75
2023/05/14 00:07:19;;;;;;;41.83;26.83;;;;;;;;;;5001499;28;20049;-74
2023/05/14 00:09:45;;;;;;;39.33;27.38;;;;;;;;;;5028446;28;20065;-75
2023/05/14 00:12:11;;;;;;;41.45;27.20;;;;;;;;;;4999154;28;20022;-74
2023/05/14 00:14:37;;;;;;;46.97;27.98;;;;;;;;;;5001776;28;20038;-75
2023/05/14 00:17:05;;;;;;;46.53;27.50;;;;;;;;;;5001377;28;20037;-74
2023/05/14 00:19:31;;;;;;;44.50;27.67;;;;;;;;;;5001793;28;20053;-75
2023/05/14 00:21:57;;;;;;;42.25;28.70;;;;;;;;;;5001610;28;20467;-75
2023/05/14 00:24:23;;;;;;;47.63;27.98;;;;;;;;;;5002887;28;20038;-74
2023/05/14 00:26:50;;;;;;;46.05;28.55;;;;;;;;;;4995998;28;20054;-74
2023/05/14 00:29:16;;;;;;;46.90;29.30;;;;;;;;;;5001114;28;20092;-74
2023/05/14 00:31:42;;;;;;;46.75;29.60;;;;;;;;;;4985889;28;20030;-74
2023/05/14 00:34:08;;;;;;;41.30;28.23;;;;;;;;;;5000430;28;20490;-75
2023/05/14 00:36:34;;;;;;;47.60;29.60;;;;;;;;;;5011240;28;20038;-74
2023/05/14 00:39:00;;;;;;;42.03;28.42;;;;;;;;;;4985640;28;20380;-74
2023/05/14 00:41:26;;;;;;;45.13;28.33;;;;;;;;;;4997226;28;20060;-74
2023/05/14 00:43:53;;;;;;;44.13;29.65;;;;;;;;;;5000615;28;20120;-75
2023/05/14 00:46:19;;;;;;;47.58;29.35;;;;;;;;;;4997679;28;20058;-74
2023/05/14 00:48:46;;;;;;;43.67;28.90;;;;;;;;;;5000973;28;20018;-74
2023/05/14 00:51:12;;;;;;;46.47;28.80;;;;;;;;;;4999501;28;20403;-75
2023/05/14 00:53:39;;;;;;;48.65;29.63;;;;;;;;;;4999401;28;20018;-74
2023/05/14 00:56:05;;;;;;;48.13;29.38;;;;;;;;;;5015222;28;20050;-75
2023/05/14 00:58:32;;;;;;;49.10;30.75;;;;;;;;;;4997712;28;20081;-75
2023/05/14 01:00:58;;;;;;;46.92;30.52;;;;;;;;;;5000104;28;20045;-75
2023/05/14 01:03:24;;;;;;;54.38;31.10;;;;;;;;;;5010697;28;20042;-74
2023/05/14 01:06:13;;;;;;;47.58;32.13;;;;;;;;;;5013786;28;20038;-75
2023/05/14 01:08:39;;;;;;;52.80;31.58;;;;;;;;;;4994275;28;20070;-75
2023/05/14 01:11:07;;;;;;;51.78;31.02;;;;;;;;;;4999132;28;20113;-75
2023/05/14 01:13:38;;;;;;;47.88;31.42;;;;;;;;;;5002310;28;20484;-74
2023/05/14 01:16:05;;;;;;;47.35;30.83;;;;;;;;;;4996861;28;20026;-74
2023/05/14 01:18:32;;;;;;;46.05;30.17;;;;;;;;;;5002444;28;20046;-75
2023/05/14 01:20:58;;;;;;;46.17;30.25;;;;;;;;;;4986112;28;20090;-74
2023/05/14 01:23:24;;;;;;;44.65;30.45;;;;;;;;;;4987175;28;20498;-74
2023/05/14 01:25:51;;;;;;;52.53;30.85;;;;;;;;;;4994703;28;20041;-74
2023/05/14 01:28:18;;;;;;;49.08;29.27;;;;;;;;;;4996799;28;20601;-74
2023/05/14 01:30:52;;;;;;;46.15;29.60;;;;;;;;;;4995323;28;20026;-74
2023/05/14 01:33:19;;;;;;;51.40;29.80;;;;;;;;;;4995733;28;20547;-74
2023/05/14 01:35:46;;;;;;;53.00;31.02;;;;;;;;;;5003115;28;20038;-74
2023/05/14 01:38:13;;;;;;;53.22;30.58;;;;;;;;;;5000915;28;20091;-74
2023/05/14 01:40:40;;;;;;;43.92;29.73;;;;;;;;;;4997142;28;20037;-74
2023/05/14 01:43:07;;;;;;;55.63;28.02;;;;;;;;;;4998321;28;20038;-74
2023/05/14 01:45:35;;;;;;;58.80;30.05;;;;;;;;;;4978299;28;20030;-75
2023/05/14 01:48:02;;;;;;;44.45;30.40;;;;;;;;;;5013643;28;20026;-74
2023/05/14 01:50:28;;;;;;;50.17;31.83;;;;;;;;;;4997411;28;20022;-75
2023/05/14 01:52:55;;;;;;;51.30;31.88;;;;;;;;;;4979513;28;20073;-74
2023/05/14 01:55:23;;;;;;;47.25;31.35;;;;;;;;;;5002631;28;20089;-74
2023/05/14 01:57:49;;;;;;;53.78;32.00;;;;;;;;;;4995645;28;20042;-75
2023/05/14 02:00:16;;;;;;;52.60;30.60;;;;;;;;;;4995193;28;20434;-75
2023/05/14 02:02:42;;;;;;;54.15;33.10;;;;;;;;;;4997200;28;20088;-75
2023/05/14 02:05:11;;;;;;;53.83;32.50;;;;;;;;;;4995631;28;20045;-75
2023/05/14 02:07:37;;;;;;;53.35;32.63;;;;;;;;;;4996379;28;20026;-75
2023/05/14 02:10:04;;;;;;;58.45;35.22;;;;;;;;;;5000550;28;20084;-75
2023/05/14 02:12:30;;;;;;;61.70;33.30;;;;;;;;;;5011213;28;20032;-75
2023/05/14 02:14:56;;;;;;;53.05;31.52;;;;;;;;;;4999118;28;20129;-75
2023/05/14 02:17:24;;;;;;;55.22;33.92;;;;;;;;;;4998949;28;20046;-76
2023/05/14 02:19:50;;;;;;;61.20;34.40;;;;;;;;;;5013372;28;20100;-76
2023/05/14 02:22:16;;;;;;;60.75;33.17;;;;;;;;;;4985403;28;20431;-74
2023/05/14 02:24:42;;;;;;;57.15;33.10;;;;;;;;;;4999031;28;20047;-75
2023/05/14 02:27:08;;;;;;;59.53;34.53;;;;;;;;;;5029001;28;20510;-75
2023/05/14 02:29:34;;;;;;;59.15;33.67;;;;;;;;;;4994053;28;20065;-75
2023/05/14 02:32:01;;;;;;;69.88;35.22;;;;;;;;;;4998533;28;20030;-75
2023/05/14 02:34:27;;;;;;;60.92;33.80;;;;;;;;;;4995394;28;20036;-75
2023/05/14 02:36:54;;;;;;;66.07;36.75;;;;;;;;;;5011245;28;20496;-74
2023/05/14 02:39:20;;;;;;;61.35;33.78;;;;;;;;;;4980499;28;20372;-75
2023/05/14 02:41:46;;;;;;;59.38;34.50;;;;;;;;;;4997839;28;20209;-75
2023/05/14 02:44:12;;;;;;;66.90;35.33;;;;;;;;;;4999803;28;20072;-75
2023/05/14 02:46:39;;;;;;;63.50;34.97;;;;;;;;;;4984783;28;20097;-76
2023/05/14 02:49:05;;;;;;;62.90;34.78;;;;;;;;;;4994382;28;20034;-75
2023/05/14 02:51:31;;;;;;;62.95;34.30;;;;;;;;;;4994654;28;20415;-75
2023/05/14 02:53:57;;;;;;;67.93;36.38;;;;;;;;;;4991358;28;20038;-75
2023/05/14 02:56:23;;;;;;;68.38;36.72;;;;;;;;;;4983995;28;20037;-74
2023/05/14 02:58:50;;;;;;;68.00;35.90;;;;;;;;;;4994268;28;20030;-75
2023/05/14 03:01:17;;;;;;;69.18;36.58;;;;;;;;;;4989492;28;20219;-74
2023/05/14 03:03:44;;;;;;;74.93;37.75;;;;;;;;;;5009720;28;20140;-75
2023/05/14 03:06:10;;;;;;;65.82;37.83;;;;;;;;;;4999060;28;20030;-76
2023/05/14 03:08:36;;;;;;;64.93;36.17;;;;;;;;;;4999901;28;20126;-75
2023/05/14 03:11:02;;;;;;;68.00;37.00;;;;;;;;;;4996832;28;20045;-75
2023/05/14 03:13:28;;;;;;;68.90;37.38;;;;;;;;;;4967053;28;20041;-75
2023/05/14 03:15:55;;;;;;;80.07;38.85;;;;;;;;;;5021511;28;20092;-76
2023/05/14 03:18:22;;;;;;;67.95;38.05;;;;;;;;;;5003111;28;20038;-75
2023/05/14 03:20:48;;;;;;;73.80;41.10;;;;;;;;;;4999695;28;20113;-76
2023/05/14 03:23:14;;;;;;;71.95;39.90;;;;;;;;;;4996305;28;20080;-76
2023/05/14 03:25:41;;;;;;;71.03;37.55;;;;;;;;;;4997144;28;20130;-75
2023/05/14 03:28:27;;;;;;;76.65;40.03;;;;;;;;;;5000868;28;20034;-74
2023/05/14 03:30:53;;;;;;;73.97;38.63;;;;;;;;;;5001563;28;20084;-74
2023/05/14 03:33:20;;;;;;;76.90;39.97;;;;;;;;;;5000113;28;20033;-75
2023/05/14 03:35:46;;;;;;;82.68;39.92;;;;;;;;;;4998761;28;20045;-75
2023/05/14 03:38:12;;;;;;;81.63;39.00;;;;;;;;;;5000588;28;20078;-75
2023/05/14 03:40:38;;;;;;;72.75;39.05;;;;;;;;;;5011942;28;20605;-75
2023/05/14 03:43:04;;;;;;;77.90;39.55;;;;;;;;;;4997752;28;20124;-75
2023/05/14 03:45:31;;;;;;;71.65;39.00;;;;;;;;;;5000872;28;20523;-75
2023/05/14 03:47:58;;;;;;;74.15;38.42;;;;;;;;;;5000661;28;20144;-74
2023/05/14 03:50:25;;;;;;;76.70;40.22;;;;;;;;;;5000284;28;20235;-75
2023/05/14 03:52:52;;;;;;;73.68;39.53;;;;;;;;;;4986176;28;20042;-75
2023/05/14 03:55:21;;;;;;;83.57;41.00;;;;;;;;;;5001917;28;20061;-75
2023/05/14 03:57:47;;;;;;;80.40;40.20;;;;;;;;;;4999061;28;20049;-75
2023/05/14 04:00:14;;;;;;;87.32;42.30;;;;;;;;;;5007726;28;20058;-75
2023/05/14 04:02:43;;;;;;;83.40;41.28;;;;;;;;;;5000312;28;20030;-75
2023/05/14 04:05:09;;;;;;;76.82;40.13;;;;;;;;;;5000993;28;20037;-75
2023/05/14 04:07:35;;;;;;;78.93;41.78;;;;;;;;;;5003080;28;20030;-74
2023/05/14 04:10:02;;;;;;;75.55;40.08;;;;;;;;;;4996292;28;20096;-75
2023/05/14 04:12:29;;;;;;;88.95;41.22;;;;;;;;;;4997372;28;20018;-75
2023/05/14 04:14:56;;;;;;;73.65;39.00;;;;;;;;;;4969522;28;20038;-75
2023/05/14 04:17:22;;;;;;;81.25;40.58;;;;;;;;;;4968187;28;20460;-75
2023/05/14 04:19:48;;;;;;;84.20;40.63;;;;;;;;;;4985946;28;20150;-75
2023/05/14 04:22:14;;;;;;;85.18;41.47;;;;;;;;;;5002341;28;20030;-75
2023/05/14 04:24:41;;;;;;;78.78;40.65;;;;;;;;;;5000257;28;20438;-75
2023/05/14 04:27:07;;;;;;;76.05;41.63;;;;;;;;;;4993696;28;21674;-75
2023/05/14 04:29:34;;;;;;;80.55;40.58;;;;;;;;;;4998847;28;20539;-75
2023/05/14 04:32:01;;;;;;;75.90;39.75;;;;;;;;;;5001076;28;20030;-75
2023/05/14 04:34:27;;;;;;;68.72;39.53;;;;;;;;;;5003570;28;20029;-75
2023/05/14 04:36:53;;;;;;;64.43;37.65;;;;;;;;;;5002805;28;20165;-75
2023/05/14 04:39:19;;;;;;;59.25;36.13;;;;;;;;;;5000342;28;20033;-75
2023/05/14 04:41:45;;;;;;;64.65;34.63;;;;;;;;;;5002413;28;20033;-74
2023/05/14 04:44:12;;;;;;;59.63;33.97;;;;;;;;;;5001813;28;20535;-75
2023/05/14 04:46:38;;;;;;;59.17;32.25;;;;;;;;;;5001267;28;20053;-74
2023/05/14 04:49:05;;;;;;;54.20;31.70;;;;;;;;;;4997080;28;20414;-75
2023/05/14 04:51:31;;;;;;;42.55;26.67;;;;;;;;;;5012953;28;20033;-74
2023/05/14 04:53:57;;;;;;;43.20;27.27;;;;;;;;;;5002447;28;20030;-75
2023/05/14 04:56:23;;;;;;;41.70;25.98;;;;;;;;;;4997958;28;20330;-75
2023/05/14 04:58:49;;;;;;;41.65;25.40;;;;;;;;;;5008943;28;20140;-75
2023/05/14 05:01:16;;;;;;;38.95;25.25;;;;;;;;;;4976689;28;20081;-74
2023/05/14 05:03:42;;;;;;;39.50;27.20;;;;;;;;;;5015368;28;20026;-75
2023/05/14 05:06:08;;;;;;;41.92;25.85;;;;;;;;;;4995806;28;20145;-75
2023/05/14 05:08:34;;;;;;;39.63;24.67;;;;;;;;;;4998531;28;20045;-75
2023/05/14 05:11:00;;;;;;;38.45;26.02;;;;;;;;;;4998931;28;20044;-75
2023/05/14 05:13:26;;;;;;;40.75;24.67;;;;;;;;;;5004292;28;20044;-76
2023/05/14 05:15:52;;;;;;;36.65;25.40;;;;;;;;;;4997241;28;20045;-75
2023/05/14 05:18:19;;;;;;;36.83;23.83;;;;;;;;;;4997579;28;20030;-75
2023/05/14 05:20:45;;;;;;;31.48;21.88;;;;;;;;;;4993407;28;20117;-75
2023/05/14 05:23:11;;;;;;;32.38;21.67;;;;;;;;;;4999434;28;20045;-74
2023/05/14 05:25:37;;;;;;;38.75;21.73;;;;;;;;;;4983734;28;20038;-75
2023/05/14 05:28:03;;;;;;;31.00;20.08;;;;;;;;;;4991506;28;20038;-75
2023/05/14 05:30:30;;;;;;;28.52;20.65;;;;;;;;;;4995828;28;20132;-75
2023/05/14 05:32:56;;;;;;;40.28;21.00;;;;;;;;;;4999439;28;20037;-74
2023/05/14 05:35:22;;;;;;;29.48;19.23;;;;;;;;;;4999015;28;20053;-75
2023/05/14 05:37:48;;;;;;;33.55;19.65;;;;;;;;;;4994473;28;20176;-75
2023/05/14 05:40:14;;;;;;;29.67;20.27;;;;;;;;;;4994627;28;20030;-74
2023/05/14 05:42:41;;;;;;;32.80;20.70;;;;;;;;;;4998677;28;20026;-75
2023/05/14 05:45:07;;;;;;;26.80;19.63;;;;;;;;;;4997641;28;20035;-74
2023/05/14 05:47:33;;;;;;;30.95;21.00;;;;;;;;;;4997522;28;20034;-74
2023/05/14 05:50:00;;;;;;;36.80;20.88;;;;;;;;;;4998717;28;20446;-74
2023/05/14 05:52:26;;;;;;;30.98;19.60;;;;;;;;;;4994846;28;20034;-75
2023/05/14 05:54:52;;;;;;;27.65;19.00;;;;;;;;;;5000675;28;20141;-74
2023/05/14 05:57:18;;;;;;;29.85;18.70;;;;;;;;;;4998162;28;20090;-75
2023/05/14 05:59:44;;;;;;;27.77;18.55;;;;;;;;;;4999707;28;20121;-76
2023/05/14 06:02:10;;;;;;;29.27;19.35;;;;;;;;;;4998801;28;20476;-75
2023/05/14 06:04:37;;;;;;;34.17;18.85;;;;;;;;;;4996758;28;20037;-73
2023/05/14 06:07:03;;;;;;;27.17;18.92;;;;;;;;;;4997895;28;20041;-73
2023/05/14 06:09:29;;;;;;;32.67;19.17;;;;;;;;;;4997577;28;20128;-74
2023/05/14 06:11:55;;;;;;;26.73;19.20;;;;;;;;;;4996377;28;20068;-74
2023/05/14 06:14:22;;;;;;;30.85;18.88;;;;;;;;;;5001349;28;20022;-73
2023/05/14 06:16:48;;;;;;;29.92;19.83;;;;;;;;;;4996731;28;20114;-74
2023/05/14 06:19:14;;;;;;;29.67;20.88;;;;;;;;;;4984945;28;20041;-75
2023/05/14 06:21:40;;;;;;;27.05;18.63;;;;;;;;;;4996049;28;20042;-77
2023/05/14 06:24:06;;;;;;;28.95;18.67;;;;;;;;;;4982151;28;20057;-74
2023/05/14 06:26:33;;;;;;;28.75;19.05;;;;;;;;;;4999297;28;20037;-74
2023/05/14 06:28:59;;;;;;;28.35;18.23;;;;;;;;;;4998723;28;20030;-75
2023/05/14 06:31:25;;;;;;;26.45;18.00;;;;;;;;;;5012582;28;20026;-75
2023/05/14 06:33:51;;;;;;;25.55;17.95;;;;;;;;;;4998144;28;20046;-77
2023/05/14 06:36:22;;;;;;;25.40;16.88;;;;;;;;;;4992680;28;20391;-77
2023/05/14 06:38:48;;;;;;;23.92;17.50;;;;;;;;;;5024637;28;20030;-76
2023/05/14 06:41:14;;;;;;;25.65;17.10;;;;;;;;;;4995809;28;20026;-76
2023/05/14 06:43:40;;;;;;;21.77;15.68;;;;;;;;;;4994729;28;20042;-77
2023/05/14 06:46:06;;;;;;;23.77;16.17;;;;;;;;;;4997702;28;20034;-74
2023/05/14 06:48:33;;;;;;;28.48;17.17;;;;;;;;;;5009459;28;20046;-76
2023/05/14 06:50:59;;;;;;;25.77;15.13;;;;;;;;;;4992935;28;20080;-75
2023/05/14 06:53:25;;;;;;;21.45;13.95;;;;;;;;;;4997686;28;20053;-75
2023/05/14 06:55:51;;;;;;;25.00;14.32;;;;;;;;;;4995105;28;20072;-74
2023/05/14 06:58:17;;;;;;;21.83;14.50;;;;;;;;;;4977162;28;20034;-77
2023/05/14 07:00:43;;;;;;;24.67;14.75;;;;;;;;;;4991214;28;20169;-75
2023/05/14 07:03:28;;;;;;;19.90;13.93;;;;;;;;;;4996444;28;20103;-78
2023/05/14 07:05:55;;;;;;;21.88;13.98;;;;;;;;;;4999305;28;20081;-75
2023/05/14 07:08:21;;;;;;;24.92;13.27;;;;;;;;;;5003191;28;20038;-76
2023/05/14 07:10:47;;;;;;;19.27;11.82;;;;;;;;;;5004632;28;20129;-76
2023/05/14 07:13:14;;;;;;;15.60;10.35;;;;;;;;;;5004268;28;20046;-76
2023/05/14 07:15:40;;;;;;;17.67;11.18;;;;;;;;;;5007008;28;20034;-77
2023/05/14 07:18:06;;;;;;;16.58;10.40;;;;;;;;;;5004644;28;20034;-77
2023/05/14 07:20:32;;;;;;;14.70;10.98;;;;;;;;;;4998236;28;21734;-77
2023/05/14 07:22:58;;;;;;;27.70;11.18;;;;;;;;;;5003317;28;20042;-77
2023/05/14 07:25:24;;;;;;;17.15;10.20;;;;;;;;;;4999862;28;20058;-77
2023/05/14 07:27:51;;;;;;;18.00;10.25;;;;;;;;;;5005700;28;20488;-77
2023/05/14 07:30:17;;;;;;;17.67;9.68;;;;;;;;;;5006841;28;20061;-74
2023/05/14 07:32:43;;;;;;;24.08;9.95;;;;;;;;;;5030818;28;20117;-74
2023/05/14 07:35:28;;;;;;;15.05;9.45;;;;;;;;;;5001979;28;20034;-74
2023/05/14 07:37:54;;;;;;;19.95;10.50;;;;;;;;;;4997593;28;20030;-74
2023/05/14 07:40:21;;;;;;;16.23;9.65;;;;;;;;;;5001608;28;20057;-74
2023/05/14 07:42:47;;;;;;;19.15;10.13;;;;;;;;;;5001445;28;20519;-75
2023/05/14 07:45:13;;;;;;;20.98;10.60;;;;;;;;;;4985772;28;20069;-74
2023/05/14 07:47:39;;;;;;;14.68;9.15;;;;;;;;;;5000489;28;20100;-76
2023/05/14 07:50:06;;;;;;;22.08;9.85;;;;;;;;;;5008167;28;20097;-75
2023/05/14 07:52:32;;;;;;;16.48;9.32;;;;;;;;;;5031063;28;20035;-73
2023/05/14 07:55:00;;;;;;;22.00;9.70;;;;;;;;;;5012700;28;20041;-75
2023/05/14 07:57:26;;;;;;;15.93;8.90;;;;;;;;;;5029228;28;20042;-75
2023/05/14 07:59:52;;;;;;;20.05;7.90;;;;;;;;;;5009484;28;20026;-74
2023/05/14 08:02:19;;;;;;;17.00;7.15;;;;;;;;;;5005901;28;20465;-75
2023/05/14 08:04:45;;;;;;;16.00;6.63;;;;;;;;;;5006747;28;20030;-74
2023/05/14 08:07:11;;;;;;;19.42;6.10;;;;;;;;;;5011581;28;20041;-75
2023/05/14 08:09:37;;;;;;;18.80;7.00;;;;;;;;;;5043704;28;20056;-75
2023/05/14 08:12:04;;;;;;;19.23;7.60;;;;;;;;;;5003664;28;20026;-73
2023/05/14 08:14:30;;;;;;;15.05;7.28;;;;;;;;;;5027432;28;20034;-75
2023/05/14 08:16:56;;;;;;;18.05;6.93;;;;;;;;;;5022586;28;20476;-75
2023/05/14 08:19:23;;;;;;;14.65;7.10;;;;;;;;;;4992434;28;20125;-75
2023/05/14 08:21:50;;;;;;;17.52;7.65;;;;;;;;;;4992133;28;20109;-74
2023/05/14 08:24:16;;;;;;;17.13;7.07;;;;;;;;;;5006085;28;20177;-74
2023/05/14 08:26:42;;;;;;;15.73;6.60;;;;;;;;;;5011240;28;20065;-74
2023/05/14 08:29:08;;;;;;;14.20;6.60;;;;;;;;;;4998018;28;20045;-76
2023/05/14 08:31:35;;;;;;;19.92;7.55;;;;;;;;;;5011307;28;20030;-75
2023/05/14 08:34:01;;;;;;;14.07;5.97;;;;;;;;;;4999953;28;20035;-75
2023/05/14 08:36:27;;;;;;;17.15;7.18;;;;;;;;;;5009312;28;20113;-75
2023/05/14 08:38:53;;;;;;;13.10;5.80;;;;;;;;;;5018431;28;20029;-75
2023/05/14 08:41:20;;;;;;;12.75;5.55;;;;;;;;;;5036574;28;20070;-75
2023/05/14 08:44:06;;;;;;;16.55;6.22;;;;;;;;;;4999173;28;20046;-74
2023/05/14 08:46:33;;;;;;;13.23;6.00;;;;;;;;;;4996458;28;20038;-76
2023/05/14 08:49:07;;;;;;;17.17;5.85;;;;;;;;;;5008282;28;20113;-75
2023/05/14 08:51:35;;;;;;;14.82;5.85;;;;;;;;;;5004799;28;20545;-75
2023/05/14 08:54:02;;;;;;;17.80;6.47;;;;;;;;;;5004429;28;20079;-74
2023/05/14 08:56:31;;;;;;;14.68;5.82;;;;;;;;;;4996325;28;20030;-75
2023/05/14 08:58:58;;;;;;;12.68;6.18;;;;;;;;;;5016304;28;20081;-74
2023/05/14 09:01:25;;;;;;;17.67;6.28;;;;;;;;;;4995916;28;20042;-75
2023/05/14 09:03:52;;;;;;;15.55;5.95;;;;;;;;;;5033001;28;20121;-74
2023/05/14 09:06:18;;;;;;;16.00;6.50;;;;;;;;;;5005565;28;20036;-74
2023/05/14 09:08:45;;;;;;;14.70;5.72;;;;;;;;;;5003353;28;20049;-74
2023/05/14 09:11:12;;;;;;;15.85;5.55;;;;;;;;;;5002892;28;20041;-75
2023/05/14 09:13:38;;;;;;;15.88;5.82;;;;;;;;;;5003872;28;20065;-74
2023/05/14 09:16:04;;;;;;;17.88;6.25;;;;;;;;;;4998734;28;20042;-74
2023/05/14 09:18:30;;;;;;;14.63;5.80;;;;;;;;;;5006130;28;20041;-74
2023/05/14 09:20:57;;;;;;;14.98;5.85;;;;;;;;;;5027389;28;20030;-76
2023/05/14 09:23:25;;;;;;;17.15;5.82;;;;;;;;;;4993987;28;20031;-76
2023/05/14 09:25:52;;;;;;;18.33;6.32;;;;;;;;;;5016734;28;20070;-75
2023/05/14 09:28:20;;;;;;;16.20;5.63;;;;;;;;;;5005963;28;20037;-75
2023/05/14 09:30:52;;;;;;;16.63;5.90;;;;;;;;;;5002833;28;20048;-76
2023/05/14 09:33:28;;;;;;;17.60;5.70;;;;;;;;;;5010604;28;20038;-77
2023/05/14 09:36:01;;;;;;;13.25;5.38;;;;;;;;;;5001855;28;20050;-75
2023/05/14 09:38:30;;;;;;;14.35;5.80;;;;;;;;;;5026471;28;20050;-75
2023/05/14 09:40:57;;;;;;;11.03;4.87;;;;;;;;;;5001999;28;20038;-75
2023/05/14 09:43:23;;;;;;;14.40;5.60;;;;;;;;;;5013653;28;20428;-73
2023/05/14 09:45:49;;;;;;;17.13;5.10;;;;;;;;;;5006341;28;20046;-73
2023/05/14 09:48:16;;;;;;;11.52;5.28;;;;;;;;;;5003630;28;20542;-74
2023/05/14 09:50:43;;;;;;;11.85;5.10;;;;;;;;;;5003086;28;20487;-75
2023/05/14 09:53:09;;;;;;;16.27;5.95;;;;;;;;;;5004739;28;20034;-72
2023/05/14 09:55:38;;;;;;;19.95;5.78;;;;;;;;;;5000383;28;20121;-73
2023/05/14 09:58:05;;;;;;;22.33;5.82;;;;;;;;;;5003770;28;20041;-73
2023/05/14 10:00:32;;;;;;;20.63;5.57;;;;;;;;;;5005849;28;20563;-74
2023/05/14 10:02:58;;;;;;;10.50;4.82;;;;;;;;;;5004777;28;20232;-73
2023/05/14 10:05:25;;;;;;;16.80;5.43;;;;;;;;;;5007140;28;20471;-74
2023/05/14 10:07:53;;;;;;;13.63;5.20;;;;;;;;;;4999327;28;20077;-73
2023/05/14 10:10:21;;;;;;;19.52;5.75;;;;;;;;;;4998066;28;20034;-73
2023/05/14 10:12:57;;;;;;;15.10;5.45;;;;;;;;;;5000030;28;20096;-75
2023/05/14 10:15:26;;;;;;;22.02;5.30;;;;;;;;;;5007814;28;20088;-74
2023/05/14 10:17:56;;;;;;;11.82;5.38;;;;;;;;;;5033241;28;20026;-74
2023/05/14 10:20:22;;;;;;;12.20;5.67;;;;;;;;;;5005651;28;20048;-74
2023/05/14 10:22:49;;;;;;;12.50;5.45;;;;;;;;;;4995947;28;20292;-74
2023/05/14 10:25:15;;;;;;;14.57;5.40;;;;;;;;;;5028403;28;20057;-73
2023/05/14 10:27:42;;;;;;;15.10;5.60;;;;;;;;;;4997155;28;20088;-74
2023/05/14 10:30:11;;;;;;;17.15;6.13;;;;;;;;;;5006171;28;20037;-75
2023/05/14 10:32:38;;;;;;;11.00;5.40;;;;;;;;;;4997834;28;20241;-74
2023/05/14 10:35:15;;;;;;;15.27;5.63;;;;;;;;;;5007137;28;20101;-74
2023/05/14 10:37:41;;;;;;;13.63;5.68;;;;;;;;;;5001618;28;20041;-75
2023/05/14 10:40:08;;;;;;;13.70;4.97;;;;;;;;;;4998771;28;20032;-77
2023/05/14 10:42:42;;;;;;;15.55;5.88;;;;;;;;;;5001356;28;20105;-74
2023/05/14 10:45:08;;;;;;;14.93;5.95;;;;;;;;;;5001782;28;20125;-74
2023/05/14 10:47:39;;;;;;;17.27;5.70;;;;;;;;;;5003981;28;20034;-75
2023/05/14 10:50:06;;;;;;;15.80;5.78;;;;;;;;;;4997991;28;20185;-75
2023/05/14 10:52:33;;;;;;;17.83;7.03;;;;;;;;;;5001362;28;20034;-74
2023/05/14 10:55:01;;;;;;;15.40;5.80;;;;;;;;;;5004985;28;20056;-75
2023/05/14 10:57:28;;;;;;;12.10;5.10;;;;;;;;;;5000875;28;20507;-74
2023/05/14 10:59:59;;;;;;;15.68;5.60;;;;;;;;;;4991121;28;20035;-78
2023/05/14 11:02:30;;;;;;;16.52;5.07;;;;;;;;;;5000196;28;20026;-74
2023/05/14 11:04:57;;;;;;;10.85;4.90;;;;;;;;;;5006736;28;20084;-74
2023/05/14 11:07:26;;;;;;;15.10;4.95;;;;;;;;;;4991977;28;20109;-74
2023/05/14 11:09:53;;;;;;;20.40;5.40;;;;;;;;;;4990029;28;20285;-74
2023/05/14 11:12:20;;;;;;;18.83;5.53;;;;;;;;;;4984873;28;20525;-75
2023/05/14 11:14:46;;;;;;;17.20;7.30;;;;;;;;;;5001986;28;20038;-74
2023/05/14 11:17:16;;;;;;;32.85;18.60;;;;;;;;;;5029753;28;20054;-74
2023/05/14 11:19:43;;;;;;;18.50;6.00;;;;;;;;;;5003571;28;20944;-74
2023/05/14 11:22:12;;;;;;;13.57;5.80;;;;;;;;;;5006661;28;20109;-74
2023/05/14 11:24:39;;;;;;;13.48;5.70;;;;;;;;;;4999405;28;20073;-73
2023/05/14 11:27:07;;;;;;;11.70;5.72;;;;;;;;;;4996546;28;20085;-72
2023/05/14 11:29:34;;;;;;;13.30;5.70;;;;;;;;;;4998020;28;20052;-72
2023/05/14 11:32:01;;;;;;;14.05;6.07;;;;;;;;;;4999339;28;20022;-74
2023/05/14 11:34:27;;;;;;;13.90;5.97;;;;;;;;;;5022973;28;20027;-75
2023/05/14 11:36:53;;;;;;;16.98;6.05;;;;;;;;;;4998495;28;20117;-73
2023/05/14 11:39:19;;;;;;;15.80;5.65;;;;;;;;;;5001337;28;20033;-74
2023/05/14 11:41:50;;;;;;;12.73;5.30;;;;;;;;;;5013583;28;20179;-75
2023/05/14 11:44:17;;;;;;;16.85;6.40;;;;;;;;;;5039920;28;20033;-73
2023/05/14 11:46:53;;;;;;;19.90;6.10;;;;;;;;;;5018812;28;20039;-74
2023/05/14 11:49:21;;;;;;;11.15;5.30;;;;;;;;;;5003670;28;20069;-73
2023/05/14 11:51:47;;;;;;;12.45;5.00;;;;;;;;;;4997202;28;20600;-73
2023/05/14 11:54:32;;;;;;;15.00;5.72;;;;;;;;;;5001811;28;20525;-75
2023/05/14 11:56:59;;;;;;;16.33;6.13;;;;;;;;;;5001606;28;20495;-73
2023/05/14 11:59:27;;;;;;;14.35;5.05;;;;;;;;;;4996724;28;20113;-73
2023/05/14 12:01:53;;;;;;;12.77;5.65;;;;;;;;;;4995519;28;20100;-74
2023/05/14 12:04:21;;;;;;;19.60;6.03;;;;;;;;;;5003371;28;20036;-74
2023/05/14 12:06:51;;;;;;;12.20;5.30;;;;;;;;;;5002410;28;20121;-74
2023/05/14 12:09:18;;;;;;;12.63;5.05;;;;;;;;;;4992846;28;21563;-73
2023/05/14 12:11:45;;;;;;;16.25;5.85;;;;;;;;;;4996922;28;20079;-74
2023/05/14 12:14:15;;;;;;;13.20;4.80;;;;;;;;;;5001468;28;20044;-75
2023/05/14 12:16:41;;;;;;;16.58;5.63;;;;;;;;;;4995117;28;20033;-74
2023/05/14 12:19:11;;;;;;;12.38;5.53;;;;;;;;;;5001333;28;20072;-74
2023/05/14 12:21:38;;;;;;;17.42;6.13;;;;;;;;;;5010979;28;20042;-75
2023/05/14 12:24:04;;;;;;;14.73;5.43;;;;;;;;;;4999500;28;20038;-75
2023/05/14 12:26:34;;;;;;;11.20;5.22;;;;;;;;;;5009857;28;20083;-74
2023/05/14 12:29:01;;;;;;;12.05;5.55;;;;;;;;;;5009769;28;20088;-74
2023/05/14 12:31:28;;;;;;;13.35;5.63;;;;;;;;;;5043840;28;20068;-74
2023/05/14 12:33:54;;;;;;;13.32;5.28;;;;;;;;;;5012427;28;20052;-74
2023/05/14 12:36:20;;;;;;;13.50;5.07;;;;;;;;;;5028037;28;20053;-75
2023/05/14 12:38:46;;;;;;;13.40;5.32;;;;;;;;;;5032338;28;20128;-75
2023/05/14 12:41:13;;;;;;;13.57;5.07;;;;;;;;;;5032239;28;20116;-74
2023/05/14 12:43:40;;;;;;;9.43;4.85;;;;;;;;;;5002134;28;20038;-74
2023/05/14 12:46:06;;;;;;;15.57;4.90;;;;;;;;;;5012539;28;20057;-74
2023/05/14 12:48:32;;;;;;;13.48;4.95;;;;;;;;;;5012399;28;20062;-73
2023/05/14 12:50:59;;;;;;;11.60;5.07;;;;;;;;;;5012497;28;20054;-74
2023/05/14 12:53:25;;;;;;;13.85;4.88;;;;;;;;;;5011585;28;20041;-74
2023/05/14 12:55:51;;;;;;;12.52;5.05;;;;;;;;;;5006197;28;20029;-74
2023/05/14 12:58:17;;;;;;;13.10;5.28;;;;;;;;;;5000098;28;20041;-74
2023/05/14 13:00:43;;;;;;;12.40;5.00;;;;;;;;;;5007604;28;20038;-75
2023/05/14 13:03:09;;;;;;;9.90;4.55;;;;;;;;;;5008051;28;20495;-74
2023/05/14 13:05:36;;;;;;;8.98;4.90;;;;;;;;;;5008768;28;20400;-75
2023/05/14 13:08:02;;;;;;;10.50;4.90;;;;;;;;;;5013943;28;20594;-74
2023/05/14 13:10:29;;;;;;;10.55;5.25;;;;;;;;;;5008088;28;20076;-75
2023/05/14 13:12:56;;;;;;;8.05;4.65;;;;;;;;;;5011557;28;20110;-74
2023/05/14 13:15:22;;;;;;;10.25;5.00;;;;;;;;;;4998442;28;20500;-76
2023/05/14 13:17:48;;;;;;;9.98;4.85;;;;;;;;;;5011895;28;20033;-74
2023/05/14 13:20:17;;;;;;;13.57;4.88;;;;;;;;;;5004782;28;20034;-74
2023/05/14 13:22:43;;;;;;;8.63;4.65;;;;;;;;;;4989229;28;20084;-73
2023/05/14 13:25:10;;;;;;;14.00;4.43;;;;;;;;;;5004154;28;20038;-75
2023/05/14 13:27:36;;;;;;;16.00;4.88;;;;;;;;;;5006550;28;20072;-75
2023/05/14 13:30:03;;;;;;;10.45;4.50;;;;;;;;;;4999352;28;20072;-73
2023/05/14 13:32:29;;;;;;;9.35;4.45;;;;;;;;;;5007608;28;20026;-75
2023/05/14 13:34:55;;;;;;;7.97;4.63;;;;;;;;;;5007487;28;20042;-75
2023/05/14 13:37:21;;;;;;;10.23;4.85;;;;;;;;;;5003084;28;20036;-74
2023/05/14 13:39:48;;;;;;;16.20;4.82;;;;;;;;;;5008951;28;20121;-75
2023/05/14 13:42:14;;;;;;;8.70;4.13;;;;;;;;;;5010081;28;20136;-74
2023/05/14 13:44:40;;;;;;;12.10;4.78;;;;;;;;;;5000875;28;20080;-74
2023/05/14 13:47:06;;;;;;;9.32;4.30;;;;;;;;;;5013661;28;20034;-74
2023/05/14 13:49:32;;;;;;;8.65;4.40;;;;;;;;;;5023209;28;20014;-74
2023/05/14 13:51:59;;;;;;;7.43;4.32;;;;;;;;;;5011411;28;20439;-75
2023/05/14 13:54:25;;;;;;;13.25;4.82;;;;;;;;;;5011258;28;20026;-75
2023/05/14 13:56:51;;;;;;;8.75;3.90;;;;;;;;;;5011160;28;20030;-74
2023/05/14 13:59:17;;;;;;;9.65;4.20;;;;;;;;;;5009770;28;20052;-74
2023/05/14 14:01:43;;;;;;;13.95;7.28;;;;;;;;;;5020351;28;20049;-74
2023/05/14 14:04:10;;;;;;;11.00;4.38;;;;;;;;;;4997618;28;20077;-74
2023/05/14 14:06:36;;;;;;;16.92;4.28;;;;;;;;;;4991829;28;20042;-74
2023/05/14 14:09:03;;;;;;;8.98;4.25;;;;;;;;;;4991423;28;20377;-73
2023/05/14 14:11:29;;;;;;;6.70;4.40;;;;;;;;;;4995492;28;20145;-74
2023/05/14 14:13:55;;;;;;;16.65;4.18;;;;;;;;;;5010808;28;20116;-74
2023/05/14 14:16:23;;;;;;;7.30;3.85;;;;;;;;;;5009354;28;20533;-75
2023/05/14 14:18:49;;;;;;;8.13;4.00;;;;;;;;;;5015370;28;20049;-75
2023/05/14 14:21:16;;;;;;;9.63;4.28;;;;;;;;;;5030603;28;20117;-74